Vitim, Russia
Current Conditions -  °F | °C
As of 3:30 AM on Friday 24 Oct 2014 (Local Time) from UIBB Reporting Station
Snow Showers Snow Showers  
Wind Chill: 19°   Ceiling: 600
Heat Index: 27°   Visibility: 1mi
Dew Point: 25°   Wind: 7mph
Humidity: 93%   Direction: 40°NE
Pressure: 29.62"   Gusts: NA
Location:  59.45°N, 112.56°E
Report Text: UIBB 231830Z 04003MPS 1600 SHSN VV006 M03/M04 Q1003 TEMPO 0600+SHSN VV003 RMK QFE709/0946 30593028
Loading
Personal Weather Stations






























Interactive Weather Map
Tropical Storm Tracking
New forecast layout! Learn more

10-Day Weather Forecast

Advertisements
Track Severe Weather on mobile